createdAt,value
2022-09-14T00:01:45.260Z,17.99
2022-09-14T00:04:17.273Z,18.01
2022-09-14T00:06:47.372Z,18.00
2022-09-14T00:09:17.828Z,17.99
2022-09-14T00:11:46.467Z,18.04
2022-09-14T00:14:15.608Z,18.01
2022-09-14T00:16:45.188Z,17.87
2022-09-14T00:19:20.142Z,17.79
2022-09-14T00:21:51.939Z,17.66
2022-09-14T00:24:20.880Z,17.69
2022-09-14T00:26:51.693Z,17.75
2022-09-14T00:29:20.789Z,17.58
2022-09-14T00:31:49.746Z,17.38
2022-09-14T00:34:20.007Z,17.61
2022-09-14T00:36:50.262Z,17.59
2022-09-14T00:39:20.027Z,17.64
2022-09-14T00:41:49.756Z,17.50
2022-09-14T00:44:59.333Z,17.63
2022-09-14T00:47:30.212Z,17.51
2022-09-14T00:50:01.430Z,17.52
2022-09-14T00:52:32.847Z,17.28
2022-09-14T00:55:01.809Z,17.26
2022-09-14T00:57:33.684Z,17.33
2022-09-14T01:00:02.730Z,17.25
2022-09-14T01:02:32.334Z,17.32
2022-09-14T01:05:02.423Z,17.29
2022-09-14T01:07:40.236Z,17.37
2022-09-14T01:10:17.237Z,17.32
2022-09-14T01:12:50.640Z,17.38
2022-09-14T01:15:25.265Z,17.32
2022-09-14T01:17:59.888Z,17.29
2022-09-14T01:20:34.285Z,17.11
2022-09-14T01:23:10.125Z,17.06
2022-09-14T01:25:59.953Z,17.22
2022-09-14T01:28:33.801Z,17.06
2022-09-14T01:31:05.250Z,17.10
2022-09-14T01:33:38.166Z,17.10
2022-09-14T01:36:08.531Z,16.99
2022-09-14T01:38:40.142Z,17.03
2022-09-14T01:41:10.838Z,17.05
2022-09-14T01:43:43.032Z,16.95
2022-09-14T01:46:14.716Z,16.96
2022-09-14T01:49:02.856Z,16.93
2022-09-14T01:51:35.929Z,17.08
2022-09-14T01:54:08.789Z,16.97
2022-09-14T01:56:41.556Z,17.01
2022-09-14T01:59:15.037Z,16.92
2022-09-14T02:01:50.356Z,16.89
2022-09-14T02:04:46.269Z,17.00
2022-09-14T02:07:15.218Z,17.09
2022-09-14T02:09:44.439Z,16.91
2022-09-14T02:12:15.014Z,16.82
2022-09-14T02:14:45.732Z,16.91
2022-09-14T02:17:15.084Z,17.04
2022-09-14T02:19:48.260Z,16.97
2022-09-14T02:22:16.829Z,16.85
2022-09-14T02:24:45.989Z,16.82
2022-09-14T02:27:14.579Z,16.84
2022-09-14T02:29:43.360Z,16.89
2022-09-14T02:32:22.514Z,16.79
2022-09-14T02:34:57.695Z,16.75
2022-09-14T02:37:31.427Z,16.69
2022-09-14T02:40:06.656Z,16.82
2022-09-14T02:42:38.293Z,16.87
2022-09-14T02:45:12.460Z,16.81
2022-09-14T02:47:55.304Z,16.92
2022-09-14T02:50:28.053Z,17.03
2022-09-14T02:53:00.979Z,16.87
2022-09-14T02:55:39.397Z,16.71
2022-09-14T02:58:10.561Z,16.60
2022-09-14T03:00:40.660Z,16.91
2022-09-14T03:03:13.067Z,16.71
2022-09-14T03:05:41.952Z,16.74
2022-09-14T03:08:11.712Z,17.02
2022-09-14T03:10:43.443Z,16.98
2022-09-14T03:13:12.639Z,17.13
2022-09-14T03:15:41.655Z,17.09
2022-09-14T03:18:14.402Z,17.00
2022-09-14T03:20:46.936Z,17.09
2022-09-14T03:23:16.208Z,17.09
2022-09-14T03:25:45.778Z,17.09
2022-09-14T03:28:14.450Z,16.79
2022-09-14T03:30:43.255Z,17.05
2022-09-14T03:33:15.344Z,17.23
2022-09-14T03:35:43.917Z,17.21
2022-09-14T03:38:12.705Z,17.31
2022-09-14T03:40:41.295Z,17.08
2022-09-14T03:43:12.356Z,17.22
2022-09-14T03:45:42.377Z,17.16
2022-09-14T03:48:11.503Z,17.48
2022-09-14T03:50:41.467Z,17.12
2022-09-14T03:53:10.330Z,17.30
2022-09-14T03:55:41.250Z,17.48
2022-09-14T03:58:09.883Z,17.50
2022-09-14T04:00:38.381Z,17.65
2022-09-14T04:03:07.278Z,17.63
2022-09-14T04:05:35.859Z,17.66
2022-09-14T04:08:05.882Z,17.66
2022-09-14T04:10:34.971Z,17.53
2022-09-14T04:13:04.033Z,17.65
2022-09-14T04:15:32.792Z,17.64
2022-09-14T04:18:01.695Z,17.56
2022-09-14T04:20:30.301Z,17.42
2022-09-14T04:22:58.871Z,17.48
2022-09-14T04:25:29.098Z,17.34
2022-09-14T04:28:19.057Z,17.55
2022-09-14T04:30:46.586Z,17.60
2022-09-14T04:33:15.134Z,17.54
2022-09-14T04:35:43.731Z,17.45
2022-09-14T04:38:12.526Z,17.28
2022-09-14T04:40:43.382Z,17.51
2022-09-14T04:43:12.018Z,17.60
2022-09-14T04:45:40.910Z,17.75
2022-09-14T04:48:09.759Z,17.65
2022-09-14T04:50:38.774Z,17.63
2022-09-14T04:53:07.339Z,17.64
2022-09-14T04:55:37.837Z,17.77
2022-09-14T04:58:08.096Z,17.80
2022-09-14T05:00:37.368Z,17.85
2022-09-14T05:03:06.679Z,17.55
2022-09-14T05:05:36.391Z,17.73
2022-09-14T05:08:05.077Z,17.92
2022-09-14T05:10:33.911Z,17.91
2022-09-14T05:13:02.453Z,17.85
2022-09-14T05:15:32.420Z,18.00
2022-09-14T05:18:01.338Z,18.06
2022-09-14T05:20:29.907Z,18.02
2022-09-14T05:22:58.489Z,18.10
2022-09-14T05:25:27.535Z,18.11
2022-09-14T05:27:56.107Z,18.23
2022-09-14T05:30:24.725Z,18.11
2022-09-14T05:32:57.960Z,18.13
2022-09-14T05:35:26.739Z,18.25
2022-09-14T05:37:55.567Z,18.49
2022-09-14T05:40:26.376Z,18.50
2022-09-14T05:42:55.030Z,18.52
2022-09-14T05:45:23.505Z,18.30
2022-09-14T05:47:52.066Z,18.33
2022-09-14T05:50:23.209Z,18.51
2022-09-14T05:52:51.767Z,18.60
2022-09-14T05:55:20.337Z,18.73
2022-09-14T05:57:50.207Z,18.66
2022-09-14T06:00:19.677Z,18.66
2022-09-14T06:02:49.339Z,18.75
2022-09-14T06:05:18.585Z,18.94
2022-09-14T06:07:52.339Z,18.99
2022-09-14T06:10:21.624Z,19.12
2022-09-14T06:12:54.802Z,19.34
2022-09-14T06:15:24.701Z,19.37
2022-09-14T06:17:53.371Z,19.28
2022-09-14T06:20:21.931Z,19.19
2022-09-14T06:22:52.176Z,19.34
2022-09-14T06:25:20.726Z,19.37
2022-09-14T06:27:49.283Z,19.34
2022-09-14T06:30:18.139Z,19.51
2022-09-14T06:32:46.726Z,19.53
2022-09-14T06:35:15.702Z,19.68
2022-09-14T06:37:44.766Z,19.85
2022-09-14T06:40:14.748Z,19.94
2022-09-14T06:42:43.439Z,19.65
2022-09-14T06:45:12.311Z,19.71
2022-09-14T06:47:40.885Z,19.91
2022-09-14T06:50:09.767Z,19.77
2022-09-14T06:52:39.613Z,19.66
2022-09-14T06:55:09.075Z,19.69
2022-09-14T06:57:42.914Z,19.41
2022-09-14T07:00:13.117Z,19.54
2022-09-14T07:02:41.771Z,19.42
2022-09-14T07:05:10.573Z,19.27
2022-09-14T07:07:39.421Z,19.03
2022-09-14T07:10:08.671Z,19.11
2022-09-14T07:12:38.572Z,19.10
2022-09-14T07:15:10.463Z,19.14
2022-09-14T07:17:39.009Z,19.15
2022-09-14T07:20:08.832Z,19.27
2022-09-14T07:22:37.707Z,19.07
2022-09-14T07:25:07.571Z,19.07
2022-09-14T07:27:39.464Z,19.17
2022-09-14T07:30:09.707Z,19.20
2022-09-14T07:32:38.237Z,19.30
2022-09-14T07:35:07.328Z,19.46
2022-09-14T07:37:36.154Z,19.56
2022-09-14T07:40:05.091Z,19.52
2022-09-14T07:42:33.668Z,19.54
2022-09-14T07:45:03.951Z,19.72
2022-09-14T07:47:32.615Z,19.67
2022-09-14T07:50:01.199Z,19.76
2022-09-14T07:52:32.801Z,19.75
2022-09-14T07:55:04.554Z,19.95
2022-09-14T07:57:54.599Z,19.89
2022-09-14T08:00:24.152Z,19.98
2022-09-14T08:02:53.860Z,19.79
2022-09-14T08:05:23.766Z,19.91
2022-09-14T08:07:55.075Z,20.03
2022-09-14T08:10:24.028Z,19.99
2022-09-14T08:12:52.920Z,20.22
2022-09-14T08:15:27.707Z,20.27
2022-09-14T08:17:56.956Z,20.17
2022-09-14T08:20:25.493Z,20.17
2022-09-14T08:22:53.939Z,20.36
2022-09-14T08:25:22.469Z,20.30
2022-09-14T08:27:51.107Z,20.39
2022-09-14T08:30:19.916Z,20.45
2022-09-14T08:32:49.747Z,20.69
2022-09-14T08:35:18.724Z,20.75
2022-09-14T08:37:52.510Z,20.82
2022-09-14T08:40:21.164Z,20.95
2022-09-14T08:42:49.860Z,21.01
2022-09-14T08:45:18.404Z,21.20
2022-09-14T08:47:47.075Z,21.29
2022-09-14T08:50:18.656Z,21.46
2022-09-14T08:52:52.885Z,21.71
2022-09-14T08:55:31.273Z,21.56
2022-09-14T08:58:07.492Z,21.72
2022-09-14T09:00:42.363Z,21.79
2022-09-14T09:03:29.671Z,21.98
2022-09-14T09:06:08.019Z,22.07
2022-09-14T09:08:50.854Z,22.17
2022-09-14T09:11:21.411Z,22.35
2022-09-14T09:13:55.632Z,22.39
2022-09-14T09:16:26.352Z,22.55
2022-09-14T09:18:59.575Z,22.69
2022-09-14T09:21:32.847Z,22.66
2022-09-14T09:24:05.768Z,22.77
2022-09-14T09:26:34.238Z,22.63
2022-09-14T09:29:05.822Z,22.88
2022-09-14T09:31:54.910Z,22.95
2022-09-14T09:34:28.131Z,23.04
2022-09-14T09:37:15.235Z,23.27
2022-09-14T09:39:44.579Z,23.36
2022-09-14T09:42:15.518Z,23.43
2022-09-14T09:45:02.469Z,23.47
2022-09-14T09:47:35.550Z,23.59
2022-09-14T09:50:06.573Z,23.76
2022-09-14T09:52:36.562Z,23.91
2022-09-14T09:55:07.123Z,23.84
2022-09-14T09:57:37.700Z,24.12
2022-09-14T10:00:13.119Z,23.93
2022-09-14T10:02:42.218Z,24.03
2022-09-14T10:05:21.328Z,23.80
2022-09-14T10:07:56.979Z,24.00
2022-09-14T10:10:40.123Z,24.22
2022-09-14T10:13:19.197Z,24.42
2022-09-14T10:15:48.978Z,24.50
2022-09-14T10:18:19.412Z,24.57
2022-09-14T10:21:07.176Z,24.70
2022-09-14T10:23:38.517Z,24.74
2022-09-14T10:26:28.773Z,24.71
2022-09-14T10:29:21.300Z,24.79
2022-09-14T10:31:51.436Z,24.96
2022-09-14T10:34:21.364Z,25.07
2022-09-14T10:36:54.939Z,25.20
2022-09-14T10:39:27.331Z,25.14
2022-09-14T10:42:02.844Z,25.19
2022-09-14T10:44:53.225Z,25.14
2022-09-14T10:47:37.558Z,25.28
2022-09-14T10:50:21.971Z,25.33
2022-09-14T10:52:58.578Z,25.48
2022-09-14T10:55:35.361Z,25.51
2022-09-14T10:58:21.325Z,25.51
2022-09-14T11:01:00.149Z,25.62
2022-09-14T11:03:42.765Z,25.51
2022-09-14T11:06:25.083Z,25.57
2022-09-14T11:08:57.529Z,25.58
2022-09-14T11:11:39.281Z,25.66
2022-09-14T11:14:24.862Z,25.59
2022-09-14T11:17:09.310Z,25.53
2022-09-14T11:19:42.904Z,25.49
2022-09-14T11:22:15.777Z,25.61
2022-09-14T11:24:47.397Z,25.69
2022-09-14T11:27:24.318Z,25.66
2022-09-14T11:29:55.645Z,25.30
2022-09-14T11:32:28.707Z,25.51
2022-09-14T11:35:01.407Z,25.44
2022-09-14T11:37:36.457Z,25.48
2022-09-14T11:40:10.687Z,25.50
2022-09-14T11:42:46.383Z,25.65
2022-09-14T11:45:20.031Z,25.62
2022-09-14T11:47:53.917Z,25.79
2022-09-14T11:50:25.307Z,25.82
2022-09-14T11:53:10.385Z,25.84
2022-09-14T11:55:43.966Z,25.87
2022-09-14T11:58:20.182Z,25.91
2022-09-14T12:01:26.745Z,25.99
2022-09-14T12:04:07.673Z,26.08
2022-09-14T12:07:00.382Z,26.14
2022-09-14T12:09:43.572Z,26.21
2022-09-14T12:12:36.661Z,26.33
2022-09-14T12:15:35.130Z,26.52
2022-09-14T12:18:22.298Z,26.56
2022-09-14T12:20:59.028Z,26.50
2022-09-14T12:23:30.672Z,26.64
2022-09-14T12:26:38.782Z,26.81
2022-09-14T12:29:26.701Z,26.90
2022-09-14T12:32:07.078Z,27.17
2022-09-14T12:34:35.663Z,27.11
2022-09-14T12:37:32.053Z,27.09
2022-09-14T12:40:38.305Z,27.35
2022-09-14T12:43:50.348Z,27.39
2022-09-14T12:46:41.859Z,27.42
2022-09-14T12:49:31.332Z,27.04
2022-09-14T12:52:05.534Z,27.28
2022-09-14T12:54:51.067Z,27.32
2022-09-14T12:57:44.548Z,27.28
2022-09-14T13:00:15.675Z,27.33
2022-09-14T13:02:50.578Z,27.25
2022-09-14T13:05:23.758Z,27.44
2022-09-14T13:07:52.795Z,27.36
2022-09-14T13:10:25.313Z,27.45
2022-09-14T13:12:54.257Z,27.57
2022-09-14T13:15:26.003Z,27.73
2022-09-14T13:17:59.086Z,27.84
2022-09-14T13:20:29.992Z,27.85
2022-09-14T13:22:58.726Z,27.86
2022-09-14T13:25:34.271Z,27.85
2022-09-14T13:28:05.561Z,27.90
2022-09-14T13:30:35.595Z,28.13
2022-09-14T13:33:04.978Z,28.20
2022-09-14T13:35:37.950Z,28.05
2022-09-14T13:38:10.174Z,28.19
2022-09-14T13:40:38.913Z,28.22
2022-09-14T13:43:08.019Z,28.44
2022-09-14T13:45:37.131Z,28.44
2022-09-14T13:48:06.475Z,28.10
2022-09-14T13:50:36.773Z,27.85
2022-09-14T13:53:05.482Z,28.13
2022-09-14T13:55:45.443Z,28.28
2022-09-14T13:58:22.520Z,28.41
2022-09-14T14:00:59.702Z,28.51
2022-09-14T14:03:32.124Z,28.67
2022-09-14T14:06:06.320Z,28.62
2022-09-14T14:08:37.320Z,28.71
2022-09-14T14:11:07.659Z,28.82
2022-09-14T14:13:38.391Z,28.90
2022-09-14T14:16:18.064Z,28.83
2022-09-14T14:18:56.519Z,28.99
2022-09-14T14:21:29.888Z,29.00
2022-09-14T14:24:17.908Z,29.11
2022-09-14T14:26:50.464Z,29.29
2022-09-14T14:29:19.869Z,29.23
2022-09-14T14:31:48.607Z,29.12
2022-09-14T14:34:22.759Z,29.05
2022-09-14T14:36:52.931Z,29.10
2022-09-14T14:39:22.720Z,28.93
2022-09-14T14:41:52.501Z,28.66
2022-09-14T14:44:24.240Z,28.39
2022-09-14T14:46:53.160Z,28.50
2022-09-14T14:49:21.974Z,28.22
2022-09-14T14:51:52.198Z,28.53
2022-09-14T14:54:21.340Z,28.47
2022-09-14T14:56:51.547Z,28.39
2022-09-14T14:59:29.388Z,28.24
2022-09-14T15:01:59.204Z,28.12
2022-09-14T15:04:28.215Z,27.93
2022-09-14T15:07:00.644Z,27.81
2022-09-14T15:09:32.054Z,27.70
2022-09-14T15:12:00.622Z,27.82
2022-09-14T15:14:29.424Z,27.74
2022-09-14T15:17:00.269Z,27.93
2022-09-14T15:19:29.627Z,27.97
2022-09-14T15:22:01.579Z,27.82
2022-09-14T15:24:30.962Z,27.75
2022-09-14T15:26:59.846Z,27.78
2022-09-14T15:29:28.406Z,27.52
2022-09-14T15:31:57.452Z,27.48
2022-09-14T15:34:26.095Z,27.35
2022-09-14T15:36:55.567Z,27.23
2022-09-14T15:39:27.727Z,27.14
2022-09-14T15:41:56.934Z,27.03
2022-09-14T15:44:26.102Z,27.09
2022-09-14T15:46:57.069Z,27.06
2022-09-14T15:49:26.571Z,26.82
2022-09-14T15:51:57.268Z,26.80
2022-09-14T15:54:32.677Z,26.63
2022-09-14T15:57:06.317Z,26.49
2022-09-14T15:59:35.652Z,26.42
2022-09-14T16:02:04.713Z,26.38
2022-09-14T16:04:36.480Z,26.20
2022-09-14T16:07:09.647Z,25.87
2022-09-14T16:09:41.278Z,25.99
2022-09-14T16:12:10.959Z,26.14
2022-09-14T16:14:39.883Z,25.87
2022-09-14T16:17:11.228Z,25.58
2022-09-14T16:19:40.144Z,25.85
2022-09-14T16:22:08.748Z,25.77
2022-09-14T16:24:37.324Z,25.41
2022-09-14T16:27:07.765Z,25.47
2022-09-14T16:29:36.451Z,25.37
2022-09-14T16:32:05.086Z,25.28
2022-09-14T16:34:33.962Z,25.18
2022-09-14T16:37:02.528Z,25.30
2022-09-14T16:39:31.718Z,25.01
2022-09-14T16:42:00.878Z,24.90
2022-09-14T16:44:31.217Z,24.96
2022-09-14T16:47:00.438Z,24.96
2022-09-14T16:49:29.124Z,24.89
2022-09-14T16:52:00.559Z,24.80
2022-09-14T16:54:31.650Z,24.73
2022-09-14T16:57:01.323Z,24.79
2022-09-14T16:59:31.521Z,24.44
2022-09-14T17:02:00.149Z,24.33
2022-09-14T17:04:28.810Z,24.37
2022-09-14T17:06:57.701Z,24.22
2022-09-14T17:09:28.406Z,24.11
2022-09-14T17:11:57.666Z,24.00
2022-09-14T17:14:27.349Z,23.89
2022-09-14T17:16:57.661Z,23.82
2022-09-14T17:19:27.057Z,23.71
2022-09-14T17:21:55.853Z,23.67
2022-09-14T17:24:25.907Z,23.51
2022-09-14T17:26:54.812Z,23.50
2022-09-14T17:29:23.485Z,23.49
2022-09-14T17:31:55.138Z,23.44
2022-09-14T17:34:25.634Z,23.32
2022-09-14T17:36:54.267Z,23.28
2022-09-14T17:39:22.847Z,23.34
2022-09-14T17:41:51.827Z,23.26
2022-09-14T17:44:20.653Z,23.06
2022-09-14T17:46:53.025Z,22.93
2022-09-14T17:49:23.008Z,22.96
2022-09-14T17:51:53.111Z,22.99
2022-09-14T17:54:22.000Z,22.80
2022-09-14T17:56:50.644Z,22.78
2022-09-14T17:59:21.119Z,22.96
2022-09-14T18:01:50.260Z,22.87
2022-09-14T18:04:19.489Z,22.90
2022-09-14T18:06:49.621Z,22.72
2022-09-14T18:09:22.464Z,22.78
2022-09-14T18:11:52.126Z,22.59
2022-09-14T18:14:20.776Z,22.67
2022-09-14T18:16:49.571Z,22.44
2022-09-14T18:19:18.522Z,22.61
2022-09-14T18:21:52.127Z,22.58
2022-09-14T18:24:23.417Z,22.37
2022-09-14T18:26:52.470Z,22.25
2022-09-14T18:29:23.432Z,22.33
2022-09-14T18:31:52.754Z,22.16
2022-09-14T18:34:22.501Z,22.16
2022-09-14T18:36:52.405Z,22.04
2022-09-14T18:39:23.009Z,22.09
2022-09-14T18:41:53.769Z,22.05
2022-09-14T18:44:23.097Z,22.11
2022-09-14T18:46:52.575Z,22.04
2022-09-14T18:49:24.096Z,21.97
2022-09-14T18:51:53.067Z,21.92
2022-09-14T18:54:27.601Z,21.85
2022-09-14T18:56:57.141Z,22.08
2022-09-14T18:59:26.964Z,22.01
2022-09-14T19:01:55.647Z,21.84
2022-09-14T19:04:24.865Z,21.93
2022-09-14T19:06:53.931Z,21.95
2022-09-14T19:09:26.821Z,21.99
2022-09-14T19:11:56.248Z,21.76
2022-09-14T19:14:25.347Z,21.77
2022-09-14T19:16:57.736Z,21.91
2022-09-14T19:19:27.014Z,21.74
2022-09-14T19:21:56.563Z,21.79
2022-09-14T19:24:31.073Z,21.63
2022-09-14T19:27:00.317Z,21.67
2022-09-14T19:29:30.010Z,21.73
2022-09-14T19:31:58.927Z,21.64
2022-09-14T19:34:29.149Z,21.58
2022-09-14T19:36:58.131Z,21.76
2022-09-14T19:39:28.639Z,21.61
2022-09-14T19:41:57.580Z,21.61
2022-09-14T19:44:26.661Z,21.67
2022-09-14T19:46:55.553Z,21.69
2022-09-14T19:49:27.243Z,21.82
2022-09-14T19:51:56.915Z,21.64
2022-09-14T19:54:25.914Z,21.61
2022-09-14T19:56:56.221Z,21.86
2022-09-14T19:59:25.702Z,21.86
2022-09-14T20:01:54.830Z,21.82
2022-09-14T20:04:24.132Z,21.70
2022-09-14T20:06:53.078Z,21.63
2022-09-14T20:09:23.765Z,21.50
2022-09-14T20:11:53.778Z,21.44
2022-09-14T20:14:25.238Z,21.61
2022-09-14T20:16:55.972Z,21.83
2022-09-14T20:19:26.604Z,21.77
2022-09-14T20:21:56.227Z,21.82
2022-09-14T20:24:26.820Z,21.78
2022-09-14T20:26:57.352Z,21.84
2022-09-14T20:29:29.386Z,21.69
2022-09-14T20:31:58.595Z,21.89
2022-09-14T20:34:27.178Z,21.76
2022-09-14T20:36:56.510Z,21.86
2022-09-14T20:39:25.488Z,21.90
2022-09-14T20:41:54.338Z,21.83
2022-09-14T20:44:23.322Z,21.73
2022-09-14T20:46:53.672Z,21.69
2022-09-14T20:49:23.534Z,21.86
2022-09-14T20:51:54.357Z,21.93
2022-09-14T20:54:23.715Z,21.63
2022-09-14T20:56:52.656Z,21.93
2022-09-14T20:59:22.861Z,21.87
2022-09-14T21:01:53.692Z,21.79
2022-09-14T21:04:24.409Z,21.79
2022-09-14T21:06:55.306Z,21.98
2022-09-14T21:09:25.469Z,22.12
2022-09-14T21:11:54.415Z,21.98
2022-09-14T21:14:23.486Z,22.10
2022-09-14T21:16:56.760Z,22.11
2022-09-14T21:19:28.010Z,22.12
2022-09-14T21:21:57.300Z,22.12
2022-09-14T21:24:26.265Z,21.98
2022-09-14T21:26:55.026Z,22.14
2022-09-14T21:29:24.673Z,22.20
2022-09-14T21:31:54.999Z,22.19
2022-09-14T21:34:26.265Z,22.17
2022-09-14T21:36:54.831Z,22.23
2022-09-14T21:39:27.286Z,22.26
2022-09-14T21:41:59.095Z,22.27
2022-09-14T21:44:31.921Z,22.15
2022-09-14T21:47:02.525Z,22.22
2022-09-14T21:49:31.296Z,22.43
2022-09-14T21:51:59.977Z,22.36
2022-09-14T21:54:29.175Z,22.25
2022-09-14T21:56:57.736Z,22.17
2022-09-14T21:59:26.448Z,22.12
2022-09-14T22:01:55.345Z,22.07
2022-09-14T22:04:26.909Z,22.07
2022-09-14T22:06:57.095Z,22.13
2022-09-14T22:09:28.844Z,22.20
2022-09-14T22:11:58.054Z,22.33
2022-09-14T22:14:28.668Z,22.27
2022-09-14T22:16:57.417Z,22.17
2022-09-14T22:19:29.461Z,22.20
2022-09-14T22:21:58.391Z,22.16
2022-09-14T22:24:37.045Z,21.99
2022-09-14T22:27:08.336Z,22.17
2022-09-14T22:29:37.735Z,22.03
2022-09-14T22:32:07.256Z,22.09
2022-09-14T22:34:37.898Z,22.00
2022-09-14T22:37:06.704Z,21.82
2022-09-14T22:39:35.396Z,21.98
2022-09-14T22:42:04.531Z,21.86
2022-09-14T22:44:33.090Z,21.89
2022-09-14T22:47:01.685Z,22.03
2022-09-14T22:49:30.852Z,22.06
2022-09-14T22:52:00.797Z,22.02
2022-09-14T22:54:29.345Z,22.04
2022-09-14T22:56:58.290Z,22.01
2022-09-14T22:59:26.920Z,22.09
2022-09-14T23:01:55.540Z,22.14
2022-09-14T23:04:24.604Z,22.27
2022-09-14T23:06:53.177Z,22.25
2022-09-14T23:09:23.340Z,22.31
2022-09-14T23:11:56.084Z,22.34
2022-09-14T23:14:24.767Z,22.36
2022-09-14T23:16:53.677Z,22.42
2022-09-14T23:19:22.322Z,22.38
2022-09-14T23:21:50.934Z,22.58
2022-09-14T23:24:19.804Z,22.59
2022-09-14T23:26:49.854Z,22.66
2022-09-14T23:29:18.635Z,22.80
2022-09-14T23:31:47.562Z,22.88
2022-09-14T23:34:16.780Z,22.91
2022-09-14T23:36:45.408Z,22.58
2022-09-14T23:39:14.526Z,22.45
2022-09-14T23:41:43.280Z,22.51
2022-09-14T23:44:13.521Z,22.44
2022-09-14T23:46:42.779Z,22.34
2022-09-14T23:49:12.493Z,22.58
2022-09-14T23:51:41.201Z,22.49
2022-09-14T23:54:10.595Z,22.44
2022-09-14T23:56:41.915Z,22.45
2022-09-14T23:59:13.963Z,22.49
